createdAt,value
2019-03-26T00:01:44.493Z,100.00
2019-03-26T00:04:13.999Z,100.00
2019-03-26T00:06:43.536Z,100.00
2019-03-26T00:09:13.103Z,100.00
2019-03-26T00:11:42.667Z,100.00
2019-03-26T00:14:12.243Z,100.00
2019-03-26T00:16:41.753Z,100.00
2019-03-26T00:19:11.290Z,100.00
2019-03-26T00:21:40.821Z,100.00
2019-03-26T00:24:10.329Z,100.00
2019-03-26T00:26:39.866Z,100.00
2019-03-26T00:29:09.392Z,100.00
2019-03-26T00:31:38.960Z,100.00
2019-03-26T00:34:18.668Z,100.00
2019-03-26T00:36:39.747Z,100.00
2019-03-26T00:39:09.237Z,100.00
2019-03-26T00:41:38.776Z,100.00
2019-03-26T00:44:08.621Z,100.00
2019-03-26T00:46:38.114Z,100.00
2019-03-26T00:49:07.621Z,100.00
2019-03-26T00:51:37.124Z,100.00
2019-03-26T00:54:06.641Z,100.00
2019-03-26T00:56:36.168Z,100.00
2019-03-26T00:59:05.721Z,100.00
2019-03-26T01:01:35.235Z,100.00
2019-03-26T01:04:04.795Z,100.00
2019-03-26T01:06:34.379Z,100.00
2019-03-26T01:09:05.392Z,100.00
2019-03-26T01:11:36.219Z,100.00
2019-03-26T01:14:06.388Z,100.00
2019-03-26T01:16:35.974Z,100.00
2019-03-26T01:19:05.566Z,100.00
2019-03-26T01:21:35.125Z,100.00
2019-03-26T01:24:04.709Z,100.00
2019-03-26T01:26:34.587Z,100.00
2019-03-26T01:29:04.291Z,100.00
2019-03-26T01:31:33.809Z,100.00
2019-03-26T01:34:03.310Z,100.00
2019-03-26T01:36:32.844Z,100.00
2019-03-26T01:39:02.785Z,100.00
2019-03-26T01:41:32.268Z,100.00
2019-03-26T01:44:21.120Z,100.00
2019-03-26T01:46:50.639Z,100.00
2019-03-26T01:49:20.149Z,100.00
2019-03-26T01:51:49.702Z,100.00
2019-03-26T01:54:19.216Z,100.00
2019-03-26T01:56:48.720Z,100.00
2019-03-26T01:59:18.254Z,100.00
2019-03-26T02:01:47.733Z,100.00
2019-03-26T02:04:17.314Z,100.00
2019-03-26T02:06:46.856Z,100.00
2019-03-26T02:09:16.364Z,100.00
2019-03-26T02:11:45.986Z,100.00
2019-03-26T02:14:15.683Z,100.00
2019-03-26T02:16:45.181Z,100.00
2019-03-26T02:19:14.675Z,100.00
2019-03-26T02:21:44.195Z,100.00
2019-03-26T02:24:14.323Z,100.00
2019-03-26T02:26:43.837Z,100.00
2019-03-26T02:29:13.326Z,100.00
2019-03-26T02:31:42.879Z,100.00
2019-03-26T02:34:12.483Z,100.00
2019-03-26T02:36:41.989Z,100.00
2019-03-26T02:39:11.468Z,100.00
2019-03-26T02:41:43.507Z,100.00
2019-03-26T02:44:12.219Z,100.00
2019-03-26T02:46:41.732Z,100.00
2019-03-26T02:49:11.220Z,100.00
2019-03-26T02:51:40.738Z,100.00
2019-03-26T02:54:10.239Z,100.00
2019-03-26T02:56:39.749Z,100.00
2019-03-26T02:59:09.238Z,100.00
2019-03-26T03:01:38.959Z,100.00
2019-03-26T03:04:08.406Z,100.00
2019-03-26T03:06:37.916Z,100.00
2019-03-26T03:09:07.880Z,100.00
2019-03-26T03:11:37.391Z,100.00
2019-03-26T03:14:08.152Z,100.00
2019-03-26T03:16:37.669Z,100.00
2019-03-26T03:19:07.179Z,100.00
2019-03-26T03:21:36.697Z,100.00
2019-03-26T03:24:06.198Z,100.00
2019-03-26T03:26:36.776Z,100.00
2019-03-26T03:29:06.266Z,100.00
2019-03-26T03:31:35.805Z,100.00
2019-03-26T03:34:05.287Z,100.00
2019-03-26T03:36:34.801Z,100.00
2019-03-26T03:39:07.035Z,100.00
2019-03-26T03:41:36.641Z,100.00
2019-03-26T03:44:06.137Z,100.00
2019-03-26T03:46:35.656Z,100.00
2019-03-26T03:49:05.760Z,100.00
2019-03-26T03:51:36.128Z,100.00
2019-03-26T03:54:05.753Z,100.00
2019-03-26T03:56:37.718Z,100.00
2019-03-26T03:59:10.292Z,100.00
2019-03-26T04:01:39.935Z,100.00
2019-03-26T04:04:09.437Z,100.00
2019-03-26T04:06:38.945Z,100.00
2019-03-26T04:09:08.437Z,100.00
2019-03-26T04:11:37.972Z,100.00
2019-03-26T04:14:07.473Z,100.00
2019-03-26T04:16:36.985Z,100.00
2019-03-26T04:19:06.488Z,100.00
2019-03-26T04:21:36.324Z,100.00
2019-03-26T04:24:05.805Z,100.00
2019-03-26T04:26:35.323Z,100.00
2019-03-26T04:29:04.842Z,100.00
2019-03-26T04:31:34.341Z,100.00
2019-03-26T04:34:03.856Z,100.00
2019-03-26T04:36:33.363Z,100.00
2019-03-26T04:39:03.637Z,100.00
2019-03-26T04:41:33.177Z,100.00
2019-03-26T04:44:02.703Z,100.00
2019-03-26T04:46:32.222Z,100.00
2019-03-26T04:49:01.737Z,100.00
2019-03-26T04:51:31.314Z,100.00
2019-03-26T04:54:00.910Z,100.00
2019-03-26T04:56:30.413Z,100.00
2019-03-26T04:59:00.116Z,100.00
2019-03-26T05:01:29.606Z,100.00
2019-03-26T05:03:59.134Z,100.00
2019-03-26T05:06:37.825Z,100.00
2019-03-26T05:08:59.893Z,100.00
2019-03-26T05:11:29.380Z,100.00
2019-03-26T05:13:58.890Z,100.00
2019-03-26T05:16:28.414Z,100.00
2019-03-26T05:18:57.922Z,100.00
2019-03-26T05:21:27.414Z,100.00
2019-03-26T05:23:56.930Z,100.00
2019-03-26T05:26:26.490Z,100.00
2019-03-26T05:28:56.013Z,100.00
2019-03-26T05:31:25.502Z,100.00
2019-03-26T05:33:54.998Z,100.00
2019-03-26T05:36:24.523Z,100.00
2019-03-26T05:38:54.025Z,100.00
2019-03-26T05:41:23.539Z,100.00
2019-03-26T05:43:53.043Z,100.00
2019-03-26T05:46:22.533Z,100.00
2019-03-26T05:48:53.131Z,100.00
2019-03-26T05:51:22.646Z,100.00
2019-03-26T05:53:52.150Z,100.00
2019-03-26T05:56:21.673Z,100.00
2019-03-26T05:58:51.188Z,100.00
2019-03-26T06:01:21.416Z,100.00
2019-03-26T06:03:50.929Z,100.00
2019-03-26T06:06:20.442Z,100.00
2019-03-26T06:08:49.956Z,100.00
2019-03-26T06:11:19.530Z,100.00
2019-03-26T06:13:49.614Z,100.00
2019-03-26T06:16:19.197Z,100.00
2019-03-26T06:18:48.681Z,100.00
2019-03-26T06:21:18.186Z,100.00
2019-03-26T06:23:47.677Z,100.00
2019-03-26T06:26:17.879Z,100.00
2019-03-26T06:28:47.391Z,100.00
2019-03-26T06:31:16.894Z,100.00
2019-03-26T06:33:46.416Z,100.00
2019-03-26T06:36:15.918Z,100.00
2019-03-26T06:39:26.457Z,100.00
2019-03-26T06:41:55.960Z,100.00
2019-03-26T06:44:44.909Z,100.00
2019-03-26T06:47:14.408Z,100.00
2019-03-26T06:50:15.528Z,100.00
2019-03-26T06:53:04.361Z,100.00
2019-03-26T06:55:33.879Z,100.00
2019-03-26T06:58:03.433Z,100.00
2019-03-26T07:00:35.114Z,100.00
2019-03-26T07:03:06.869Z,100.00
2019-03-26T07:05:36.396Z,100.00
2019-03-26T07:08:05.963Z,100.00
2019-03-26T07:10:35.955Z,100.00
2019-03-26T07:13:05.441Z,100.00
2019-03-26T07:15:34.935Z,100.00
2019-03-26T07:18:04.582Z,100.00
2019-03-26T07:20:34.144Z,100.00
2019-03-26T07:23:04.141Z,100.00
2019-03-26T07:25:33.634Z,100.00
2019-03-26T07:28:03.212Z,100.00
2019-03-26T07:30:36.896Z,100.00
2019-03-26T07:33:06.355Z,100.00
2019-03-26T07:35:35.986Z,100.00
2019-03-26T07:38:05.740Z,100.00
2019-03-26T07:40:35.243Z,100.00
2019-03-26T07:43:05.240Z,100.00
2019-03-26T07:45:34.925Z,100.00
2019-03-26T07:48:04.676Z,100.00
2019-03-26T07:50:34.166Z,100.00
2019-03-26T07:53:03.671Z,100.00
2019-03-26T07:55:33.160Z,100.00
2019-03-26T07:58:02.740Z,100.00
2019-03-26T08:00:37.149Z,100.00
2019-03-26T08:03:07.379Z,100.00
2019-03-26T08:05:36.944Z,100.00
2019-03-26T08:08:06.528Z,49.80
2019-03-26T08:10:36.082Z,42.20
2019-03-26T08:13:05.956Z,42.79
2019-03-26T08:15:35.434Z,36.97
2019-03-26T08:18:06.166Z,44.37
2019-03-26T08:20:35.650Z,44.40
2019-03-26T08:23:05.759Z,43.61
2019-03-26T08:25:35.309Z,53.88
2019-03-26T08:28:05.325Z,43.85
2019-03-26T08:33:55.063Z,40.39
2019-03-26T08:36:24.553Z,41.32
2019-03-26T08:38:54.064Z,48.33
2019-03-26T08:41:23.569Z,51.40
2019-03-26T08:43:53.070Z,37.52
2019-03-26T08:46:22.562Z,36.93
2019-03-26T08:48:52.109Z,35.69
2019-03-26T08:51:21.596Z,44.16
2019-03-26T08:53:51.086Z,56.67
2019-03-26T08:56:20.607Z,70.40
2019-03-26T08:58:50.117Z,88.20
2019-03-26T09:01:19.662Z,95.41
2019-03-26T09:03:49.174Z,100.00
2019-03-26T09:06:18.657Z,99.25
2019-03-26T09:08:48.130Z,92.54
2019-03-26T09:11:17.664Z,95.22
2019-03-26T09:13:47.193Z,98.07
2019-03-26T09:16:16.742Z,100.00
2019-03-26T09:18:46.257Z,100.00
2019-03-26T09:21:15.717Z,100.00
2019-03-26T09:23:45.252Z,100.00
2019-03-26T09:26:14.727Z,94.63
2019-03-26T09:28:44.237Z,88.26
2019-03-26T09:31:13.701Z,91.44
2019-03-26T09:33:43.503Z,91.97
2019-03-26T09:36:12.996Z,98.53
2019-03-26T09:38:43.351Z,100.00
2019-03-26T09:41:12.837Z,100.00
2019-03-26T09:43:42.337Z,100.00
2019-03-26T09:46:11.823Z,100.00
2019-03-26T09:48:41.349Z,99.34
2019-03-26T09:51:11.495Z,100.00
2019-03-26T09:53:40.984Z,100.00
2019-03-26T09:56:10.500Z,100.00
2019-03-26T09:58:40.004Z,98.40
2019-03-26T10:01:09.491Z,91.82
2019-03-26T10:03:38.992Z,88.74
2019-03-26T10:06:08.480Z,91.60
2019-03-26T10:08:51.473Z,89.16
2019-03-26T10:11:09.206Z,90.25
2019-03-26T10:13:51.237Z,86.47
2019-03-26T10:16:20.717Z,86.58
2019-03-26T10:18:50.227Z,82.10
2019-03-26T10:21:20.436Z,79.98
2019-03-26T10:23:49.947Z,85.21
2019-03-26T10:26:38.786Z,72.79
2019-03-26T10:29:23.913Z,71.86
2019-03-26T10:31:39.904Z,68.43
2019-03-26T10:34:09.474Z,70.41
2019-03-26T10:36:41.466Z,68.50
2019-03-26T10:39:10.246Z,61.43
2019-03-26T10:41:39.737Z,55.67
2019-03-26T10:44:09.239Z,65.10
2019-03-26T10:46:38.750Z,56.46
2019-03-26T10:49:08.734Z,56.05
2019-03-26T10:51:38.240Z,45.43
2019-03-26T10:54:07.750Z,38.91
2019-03-26T10:56:37.247Z,38.03
2019-03-26T10:59:06.756Z,40.58
2019-03-26T11:01:55.599Z,41.84
2019-03-26T11:04:25.213Z,39.66
2019-03-26T11:06:54.793Z,42.87
2019-03-26T11:09:27.189Z,39.45
2019-03-26T11:11:55.503Z,33.98
2019-03-26T11:14:44.352Z,33.46
2019-03-26T11:17:13.863Z,36.17
2019-03-26T11:19:46.280Z,37.36
2019-03-26T11:22:14.621Z,31.51
2019-03-26T11:24:44.145Z,31.32
2019-03-26T11:27:13.630Z,39.25
2019-03-26T11:29:43.139Z,42.31
2019-03-26T11:32:12.728Z,38.67
2019-03-26T11:34:42.242Z,36.49
2019-03-26T11:37:11.788Z,40.46
2019-03-26T11:39:41.304Z,42.96
2019-03-26T11:42:10.813Z,40.11
2019-03-26T11:44:40.321Z,44.71
2019-03-26T11:47:09.802Z,42.63
2019-03-26T11:49:39.302Z,49.40
2019-03-26T11:52:08.851Z,50.04
2019-03-26T11:54:57.696Z,56.40
2019-03-26T12:00:32.876Z,46.91
2019-03-26T12:03:21.714Z,42.27
2019-03-26T12:06:03.811Z,42.09
2019-03-26T12:08:33.303Z,42.97
2019-03-26T12:11:02.794Z,39.09
2019-03-26T12:13:33.548Z,35.28
2019-03-26T12:16:03.046Z,34.57
2019-03-26T12:18:32.534Z,29.25
2019-03-26T12:21:40.443Z,32.97
2019-03-26T12:24:09.948Z,38.52
2019-03-26T12:26:39.468Z,40.07
2019-03-26T12:29:09.049Z,34.35
2019-03-26T12:31:38.542Z,35.58
2019-03-26T12:34:08.125Z,35.88
2019-03-26T12:36:40.206Z,36.90
2019-03-26T12:39:08.872Z,42.13
2019-03-26T12:41:38.780Z,38.97
2019-03-26T12:44:08.360Z,41.13
2019-03-26T12:46:37.854Z,40.05
2019-03-26T12:49:07.377Z,40.53
2019-03-26T12:51:39.342Z,42.10
2019-03-26T12:54:08.153Z,43.80
2019-03-26T12:56:38.080Z,43.33
2019-03-26T12:59:07.597Z,43.40
2019-03-26T13:01:37.121Z,43.02
2019-03-26T13:04:12.412Z,39.62
2019-03-26T13:06:37.831Z,39.40
2019-03-26T13:09:09.566Z,40.87
2019-03-26T13:11:39.071Z,38.59
2019-03-26T13:14:08.593Z,34.62
2019-03-26T13:16:38.200Z,32.56
2019-03-26T13:19:07.728Z,32.54
2019-03-26T13:21:37.651Z,30.65
2019-03-26T13:24:07.289Z,28.68
2019-03-26T13:26:36.797Z,30.45
2019-03-26T13:29:06.309Z,32.94
2019-03-26T13:31:35.824Z,35.99
2019-03-26T13:34:05.330Z,35.34
2019-03-26T13:36:36.056Z,37.69
2019-03-26T13:39:08.637Z,38.49
2019-03-26T13:41:38.113Z,40.16
2019-03-26T13:44:07.622Z,40.99
2019-03-26T13:46:37.104Z,42.59
2019-03-26T13:49:06.605Z,43.30
2019-03-26T13:51:37.339Z,43.89
2019-03-26T13:54:06.920Z,40.29
2019-03-26T13:56:36.403Z,43.94
2019-03-26T13:59:05.954Z,44.43
2019-03-26T14:01:35.461Z,44.62
2019-03-26T14:04:05.100Z,42.75
2019-03-26T14:06:34.655Z,40.85
2019-03-26T14:09:07.105Z,36.46
2019-03-26T14:11:36.579Z,36.02
2019-03-26T14:14:06.100Z,36.31
2019-03-26T14:16:35.649Z,34.33
2019-03-26T14:19:05.156Z,36.21
2019-03-26T14:21:34.692Z,40.33
2019-03-26T14:24:04.266Z,44.88
2019-03-26T14:26:33.817Z,45.55
2019-03-26T14:29:03.583Z,43.95
2019-03-26T14:32:05.571Z,44.63
2019-03-26T14:34:35.068Z,46.88
2019-03-26T14:37:04.782Z,43.42
2019-03-26T14:39:34.308Z,42.19
2019-03-26T14:42:03.852Z,44.32
2019-03-26T14:44:33.332Z,44.63
2019-03-26T14:47:02.860Z,44.84
2019-03-26T14:49:32.398Z,51.29
2019-03-26T14:52:21.218Z,53.65
2019-03-26T14:54:50.722Z,50.46
2019-03-26T14:57:20.204Z,47.04
2019-03-26T14:59:49.717Z,41.89
2019-03-26T15:02:19.200Z,42.98
2019-03-26T15:04:48.708Z,41.78
2019-03-26T15:07:18.192Z,41.88
2019-03-26T15:09:47.694Z,40.84
2019-03-26T15:12:17.201Z,41.13
2019-03-26T15:14:46.693Z,42.72
2019-03-26T15:17:16.271Z,45.06
2019-03-26T15:19:45.768Z,44.83
2019-03-26T15:22:15.281Z,42.35
2019-03-26T15:24:44.814Z,43.70
2019-03-26T15:27:14.399Z,46.74
2019-03-26T15:29:43.914Z,48.84
2019-03-26T15:32:13.484Z,50.01
2019-03-26T15:34:43.000Z,54.26
2019-03-26T15:37:12.494Z,52.26
2019-03-26T15:39:42.986Z,52.55
2019-03-26T15:42:12.485Z,54.76
2019-03-26T15:44:41.966Z,57.30
2019-03-26T15:47:11.465Z,60.94
2019-03-26T15:49:40.946Z,58.93
2019-03-26T15:52:11.033Z,62.96
2019-03-26T15:54:40.512Z,57.97
2019-03-26T15:57:10.018Z,62.64
2019-03-26T15:59:39.506Z,57.34
2019-03-26T16:02:09.011Z,56.28
2019-03-26T16:04:39.076Z,58.65
2019-03-26T16:07:08.579Z,60.20
2019-03-26T16:09:57.440Z,60.32
2019-03-26T16:12:40.277Z,62.97
2019-03-26T16:14:58.197Z,60.50
2019-03-26T16:17:27.708Z,63.62
2019-03-26T16:19:57.187Z,66.83
2019-03-26T16:22:26.702Z,67.42
2019-03-26T16:24:56.191Z,63.04
2019-03-26T16:27:45.033Z,66.04
2019-03-26T16:30:14.698Z,68.72
2019-03-26T16:32:44.210Z,72.51
2019-03-26T16:35:13.725Z,69.90
2019-03-26T16:38:02.561Z,75.37
2019-03-26T16:40:43.036Z,73.70
2019-03-26T16:43:12.556Z,71.56
2019-03-26T16:45:42.676Z,72.43
2019-03-26T16:48:12.233Z,72.19
2019-03-26T16:50:41.745Z,71.28
2019-03-26T16:53:11.229Z,64.98
2019-03-26T16:55:40.744Z,72.04
2019-03-26T16:58:10.305Z,73.69
2019-03-26T17:00:39.903Z,74.88
2019-03-26T17:03:41.419Z,73.27
2019-03-26T17:06:30.287Z,72.76
2019-03-26T17:09:12.585Z,72.31
2019-03-26T17:11:43.363Z,73.53
2019-03-26T17:14:12.833Z,75.66
2019-03-26T17:16:42.345Z,77.78
2019-03-26T17:19:11.844Z,77.77
2019-03-26T17:21:41.348Z,76.00
2019-03-26T17:24:10.837Z,78.49
2019-03-26T17:26:40.358Z,78.66
2019-03-26T17:29:09.839Z,80.44
2019-03-26T17:31:39.330Z,78.92
2019-03-26T17:34:08.842Z,80.91
2019-03-26T17:36:38.327Z,79.73
2019-03-26T17:39:10.905Z,79.09
2019-03-26T17:41:40.412Z,79.39
2019-03-26T17:44:09.916Z,79.07
2019-03-26T17:46:39.442Z,80.06
2019-03-26T17:49:08.936Z,80.15
2019-03-26T17:51:57.771Z,81.97
2019-03-26T17:54:27.261Z,84.50
2019-03-26T17:56:56.784Z,85.12
2019-03-26T17:59:26.261Z,87.23
2019-03-26T18:01:55.762Z,87.73
2019-03-26T18:04:25.232Z,90.72
2019-03-26T18:06:54.799Z,93.22
2019-03-26T18:09:24.345Z,91.27
2019-03-26T18:11:53.814Z,94.42
2019-03-26T18:14:23.309Z,95.62
2019-03-26T18:16:52.821Z,96.75
2019-03-26T18:19:22.322Z,97.79
2019-03-26T18:24:52.590Z,98.18
2019-03-26T18:27:22.101Z,97.66
2019-03-26T18:29:51.601Z,97.15
2019-03-26T18:32:21.445Z,96.58
2019-03-26T18:34:50.931Z,96.47
2019-03-26T18:37:20.446Z,98.96
2019-03-26T18:39:49.932Z,98.42
2019-03-26T18:42:19.493Z,99.68
2019-03-26T18:44:49.542Z,98.96
2019-03-26T18:47:19.087Z,100.00
2019-03-26T18:50:08.115Z,100.00
2019-03-26T18:52:56.971Z,100.00
2019-03-26T18:55:45.809Z,100.00
2019-03-26T18:58:34.648Z,96.37
2019-03-26T19:01:04.198Z,99.19
2019-03-26T19:03:34.054Z,100.00
2019-03-26T19:06:03.602Z,100.00
2019-03-26T19:08:33.383Z,100.00
2019-03-26T19:11:03.251Z,100.00
2019-03-26T19:13:32.772Z,100.00
2019-03-26T19:16:02.272Z,100.00
2019-03-26T19:18:31.776Z,100.00
2019-03-26T19:21:02.606Z,100.00
2019-03-26T19:23:32.389Z,100.00
2019-03-26T19:26:01.874Z,100.00
2019-03-26T19:28:31.376Z,100.00
2019-03-26T19:31:20.208Z,100.00
2019-03-26T19:34:02.667Z,100.00
2019-03-26T19:36:32.238Z,100.00
2019-03-26T19:39:01.733Z,100.00
2019-03-26T19:41:31.242Z,100.00
2019-03-26T19:44:00.729Z,100.00
2019-03-26T19:46:30.218Z,100.00
2019-03-26T19:48:59.724Z,100.00
2019-03-26T19:51:29.226Z,100.00
2019-03-26T19:53:58.722Z,100.00
2019-03-26T19:56:28.209Z,100.00
2019-03-26T19:58:57.742Z,100.00
2019-03-26T20:01:46.601Z,100.00
2019-03-26T20:04:16.136Z,100.00
2019-03-26T20:06:45.646Z,100.00
2019-03-26T20:09:15.120Z,100.00
2019-03-26T20:11:44.629Z,100.00
2019-03-26T20:14:14.118Z,100.00
2019-03-26T20:16:43.623Z,100.00
2019-03-26T20:19:13.149Z,100.00
2019-03-26T20:22:01.998Z,100.00
2019-03-26T20:24:31.511Z,100.00
2019-03-26T20:27:20.357Z,100.00
2019-03-26T20:30:21.557Z,100.00
2019-03-26T20:32:51.086Z,100.00
2019-03-26T20:35:20.701Z,100.00
2019-03-26T20:37:50.227Z,100.00
2019-03-26T20:40:20.543Z,100.00
2019-03-26T20:42:50.061Z,100.00
2019-03-26T20:45:20.648Z,100.00
2019-03-26T20:47:50.160Z,100.00
2019-03-26T20:50:20.327Z,100.00
2019-03-26T20:52:49.835Z,100.00
2019-03-26T20:55:34.462Z,100.00
2019-03-26T20:58:04.176Z,100.00
2019-03-26T21:00:53.016Z,100.00
2019-03-26T21:03:22.543Z,100.00
2019-03-26T21:05:52.047Z,100.00
2019-03-26T21:08:21.539Z,100.00
2019-03-26T21:10:51.020Z,100.00
2019-03-26T21:13:21.254Z,100.00
2019-03-26T21:15:57.104Z,100.00
2019-03-26T21:18:22.002Z,100.00
2019-03-26T21:20:51.928Z,100.00
2019-03-26T21:23:21.428Z,100.00
2019-03-26T21:25:50.935Z,100.00
2019-03-26T21:28:20.473Z,100.00
2019-03-26T21:30:49.964Z,100.00
2019-03-26T21:33:19.538Z,100.00
2019-03-26T21:35:49.035Z,100.00
2019-03-26T21:38:18.530Z,100.00
2019-03-26T21:40:48.014Z,100.00
2019-03-26T21:43:17.529Z,100.00
2019-03-26T21:45:48.082Z,100.00
2019-03-26T21:48:17.647Z,100.00
2019-03-26T21:50:47.130Z,100.00
2019-03-26T21:53:16.613Z,100.00
2019-03-26T21:55:46.126Z,100.00
2019-03-26T21:58:35.757Z,100.00
2019-03-26T22:01:05.265Z,100.00
2019-03-26T22:03:34.766Z,100.00
2019-03-26T22:06:23.632Z,100.00
2019-03-26T22:08:53.240Z,100.00
2019-03-26T22:11:22.746Z,100.00
2019-03-26T22:14:17.791Z,100.00
2019-03-26T22:16:42.792Z,100.00
2019-03-26T22:19:12.331Z,100.00
2019-03-26T22:21:43.045Z,100.00
2019-03-26T22:24:12.576Z,100.00
2019-03-26T22:26:42.083Z,100.00
2019-03-26T22:29:11.618Z,100.00
2019-03-26T22:31:41.135Z,100.00
2019-03-26T22:34:11.686Z,100.00
2019-03-26T22:36:41.193Z,100.00
2019-03-26T22:39:10.696Z,100.00
2019-03-26T22:41:59.561Z,100.00
2019-03-26T22:44:31.548Z,100.00
2019-03-26T22:47:00.292Z,100.00
2019-03-26T22:49:29.797Z,100.00
2019-03-26T22:51:59.335Z,100.00
2019-03-26T22:54:28.840Z,100.00
2019-03-26T22:56:58.356Z,100.00
2019-03-26T22:59:27.858Z,100.00
2019-03-26T23:02:16.699Z,100.00
2019-03-26T23:04:59.367Z,100.00
2019-03-26T23:07:29.490Z,100.00
2019-03-26T23:09:59.002Z,100.00
2019-03-26T23:12:28.486Z,100.00
2019-03-26T23:14:57.997Z,100.00
2019-03-26T23:17:27.582Z,100.00
2019-03-26T23:19:57.656Z,100.00
2019-03-26T23:22:27.135Z,100.00
2019-03-26T23:24:56.673Z,100.00
2019-03-26T23:27:26.156Z,100.00
2019-03-26T23:29:55.662Z,100.00
2019-03-26T23:32:25.856Z,100.00
2019-03-26T23:34:55.392Z,100.00
2019-03-26T23:37:24.877Z,100.00
2019-03-26T23:39:54.410Z,100.00
2019-03-26T23:42:23.892Z,100.00
2019-03-26T23:44:58.617Z,100.00
2019-03-26T23:47:25.451Z,100.00
2019-03-26T23:49:54.959Z,100.00
2019-03-26T23:52:24.486Z,100.00
2019-03-26T23:54:53.989Z,100.00
2019-03-26T23:57:24.570Z,100.00
2019-03-26T23:59:54.103Z,100.00
